Time;durP1;ratioP1;P1;durP2;ratioP2;P2;SDS_P1;SDS_P2;PMS_P1;PMS_P2;Temp;Humidity;BMP_temperature;BMP_pressure;BME280_temperature;BME280_humidity;BME280_pressure;Samples;Min_cycle;Max_cycle;Signal;HPM_P1;HPM_P2
2023/12/15 00:01:49;;;;;;;17.63;10.68;;;;;;;7.06;92.21;102663.31;5060944;28;20070;-69
2023/12/15 00:04:15;;;;;;;20.95;10.40;;;;;;;7.08;92.15;102667.69;5063668;28;20037;-69
2023/12/15 00:06:40;;;;;;;18.70;11.27;;;;;;;7.07;92.58;102665.94;5061420;28;20017;-69
2023/12/15 00:09:06;;;;;;;23.05;12.30;;;;;;;7.08;92.57;102669.44;5057833;28;20479;-69
2023/12/15 00:11:31;;;;;;;22.40;12.10;;;;;;;7.10;92.45;102673.84;5060243;28;20033;-69
2023/12/15 00:13:56;;;;;;;22.33;11.60;;;;;;;7.06;93.09;102677.31;5058783;28;20025;-69
2023/12/15 00:16:22;;;;;;;20.10;10.75;;;;;;;7.08;93.30;102683.47;5063103;28;20032;-69
2023/12/15 00:18:47;;;;;;;20.92;11.98;;;;;;;7.09;92.88;102692.25;5058666;28;20025;-69
2023/12/15 00:21:12;;;;;;;22.25;12.52;;;;;;;7.06;93.48;102701.00;5059991;28;20044;-69
2023/12/15 00:23:38;;;;;;;21.17;12.70;;;;;;;7.04;93.88;102699.22;5057410;28;20021;-70
2023/12/15 00:26:03;;;;;;;24.23;13.27;;;;;;;7.04;94.03;102702.75;5062764;28;20063;-69
2023/12/15 00:28:29;;;;;;;25.45;13.15;;;;;;;7.07;94.18;102697.50;5059034;28;20044;-69
2023/12/15 00:30:54;;;;;;;25.10;13.38;;;;;;;7.07;94.40;102702.75;5056806;28;20042;-69
2023/12/15 00:33:19;;;;;;;28.70;16.00;;;;;;;7.03;94.64;102698.34;5064758;28;20538;-69
2023/12/15 00:35:46;;;;;;;27.58;13.80;;;;;;;7.01;94.88;102693.97;5059135;28;20055;-69
2023/12/15 00:38:11;;;;;;;26.77;14.20;;;;;;;7.05;94.63;102698.38;5058825;28;20029;-69
2023/12/15 00:40:37;;;;;;;26.83;14.68;;;;;;;7.05;94.64;102698.38;5062091;28;20028;-69
2023/12/15 00:43:02;;;;;;;22.65;13.80;;;;;;;7.08;94.10;102690.47;5057584;28;20033;-69
2023/12/15 00:45:27;;;;;;;28.85;14.02;;;;;;;7.06;94.90;102702.75;5056081;28;20392;-69
2023/12/15 00:47:53;;;;;;;26.13;15.65;;;;;;;7.06;94.88;102698.38;5055167;28;20112;-69
2023/12/15 00:50:18;;;;;;;28.63;14.02;;;;;;;7.05;94.97;102688.72;5065818;28;20052;-69
2023/12/15 00:52:43;;;;;;;28.88;13.60;;;;;;;7.09;95.11;102703.66;5059724;28;20112;-69
2023/12/15 00:55:09;;;;;;;27.77;14.57;;;;;;;7.13;95.00;102692.28;5060427;28;21353;-69
2023/12/15 00:57:34;;;;;;;28.75;15.05;;;;;;;7.13;94.67;102697.53;5059737;28;20048;-70
2023/12/15 00:59:59;;;;;;;28.60;14.30;;;;;;;7.14;94.84;102703.66;5065055;28;20044;-69
2023/12/15 01:02:25;;;;;;;28.85;14.93;;;;;;;7.10;95.30;102717.69;5064105;28;20577;-69
2023/12/15 01:04:50;;;;;;;28.42;14.20;;;;;;;7.17;95.12;102716.81;5061749;28;20031;-69
2023/12/15 01:07:16;;;;;;;27.05;13.57;;;;;;;7.21;94.85;102722.97;5069595;28;20028;-69
2023/12/15 01:09:41;;;;;;;30.70;14.43;;;;;;;7.21;94.63;102718.59;5056663;28;20078;-69
2023/12/15 01:12:06;;;;;;;23.98;14.23;;;;;;;7.21;94.71;102725.59;5060918;28;20021;-69
2023/12/15 01:14:32;;;;;;;31.67;15.23;;;;;;;7.22;94.65;102724.72;5059397;28;20029;-68
2023/12/15 01:16:59;;;;;;;35.00;15.80;;;;;;;7.23;95.26;102730.00;5068520;28;20449;-69
2023/12/15 01:19:24;;;;;;;35.42;14.73;;;;;;;7.27;94.82;102736.13;5060395;28;20032;-68
2023/12/15 01:21:49;;;;;;;28.60;14.60;;;;;;;7.26;95.03;102731.75;5064923;28;20408;-68
2023/12/15 01:24:15;;;;;;;34.90;15.50;;;;;;;7.25;95.07;102728.25;5060351;28;20387;-68
2023/12/15 01:26:40;;;;;;;29.30;14.82;;;;;;;7.28;94.97;102733.53;5056087;28;20127;-69
2023/12/15 01:29:05;;;;;;;28.80;15.05;;;;;;;7.30;94.97;102738.78;5057142;28;20036;-68
2023/12/15 01:31:31;;;;;;;32.30;15.93;;;;;;;7.29;95.32;102743.19;5062421;28;20037;-69
2023/12/15 01:33:57;;;;;;;29.48;15.25;;;;;;;7.28;95.48;102743.19;5056942;28;20020;-69
2023/12/15 01:36:22;;;;;;;32.13;16.63;;;;;;;7.28;95.28;102748.44;5058217;28;20037;-69
2023/12/15 01:38:48;;;;;;;34.45;15.48;;;;;;;7.33;95.32;102751.97;5066256;28;20163;-69
2023/12/15 01:41:13;;;;;;;34.20;17.13;;;;;;;7.30;95.30;102752.81;5064535;28;20025;-68
2023/12/15 01:43:38;;;;;;;31.20;15.88;;;;;;;7.34;95.40;102756.34;5060673;28;20383;-69
2023/12/15 01:46:04;;;;;;;30.05;15.52;;;;;;;7.36;95.22;102758.09;5056837;28;20045;-68
2023/12/15 01:48:30;;;;;;;32.00;15.90;;;;;;;7.37;94.94;102757.25;5061901;28;20115;-69
2023/12/15 01:50:55;;;;;;;28.55;14.75;;;;;;;7.35;95.61;102744.94;5057665;28;20427;-69
2023/12/15 01:53:20;;;;;;;30.90;15.07;;;;;;;7.38;94.92;102761.63;5051258;28;20061;-69
2023/12/15 01:55:47;;;;;;;33.92;15.63;;;;;;;7.38;95.04;102756.38;5055452;28;20021;-70
2023/12/15 01:58:12;;;;;;;28.95;14.85;;;;;;;7.38;94.92;102759.00;5056998;28;20177;-69
2023/12/15 02:00:37;;;;;;;29.38;14.10;;;;;;;7.41;95.13;102766.00;5059932;28;20111;-69
2023/12/15 02:03:03;;;;;;;25.67;14.15;;;;;;;7.41;95.14;102769.56;5059240;28;20032;-69
2023/12/15 02:05:28;;;;;;;27.92;14.20;;;;;;;7.43;94.96;102772.19;5059479;28;20602;-70
2023/12/15 02:07:54;;;;;;;31.75;15.10;;;;;;;7.44;95.01;102778.31;5062866;28;20027;-69
2023/12/15 02:10:19;;;;;;;26.98;13.88;;;;;;;7.43;95.25;102779.19;5062377;28;20099;-69
2023/12/15 02:12:44;;;;;;;25.75;13.98;;;;;;;7.44;95.15;102787.09;5055508;28;20070;-69
2023/12/15 02:15:11;;;;;;;28.17;14.40;;;;;;;7.45;95.14;102782.69;5056752;28;20028;-70
2023/12/15 02:17:37;;;;;;;26.38;14.38;;;;;;;7.47;95.35;102779.22;5059339;28;20089;-69
2023/12/15 02:20:02;;;;;;;22.77;11.57;;;;;;;7.45;95.39;102769.53;5060991;28;20035;-69
2023/12/15 02:22:31;;;;;;;32.00;14.95;;;;;;;7.46;95.48;102781.81;5055306;28;20021;-69
2023/12/15 02:24:56;;;;;;;26.02;13.43;;;;;;;7.46;95.35;102785.34;5058041;28;20024;-69
2023/12/15 02:27:21;;;;;;;28.17;14.80;;;;;;;7.49;95.49;102784.47;5060723;28;20025;-70
2023/12/15 02:29:47;;;;;;;31.33;13.38;;;;;;;7.47;95.72;102786.25;5053730;28;20036;-70
2023/12/15 02:32:12;;;;;;;25.50;13.27;;;;;;;7.48;95.84;102794.13;5060826;28;20052;-69
2023/12/15 02:34:38;;;;;;;27.95;15.07;;;;;;;7.50;95.77;102802.03;5059514;28;20070;-69
2023/12/15 02:37:03;;;;;;;27.33;14.65;;;;;;;7.51;95.84;102803.81;5061645;28;20116;-69
2023/12/15 02:39:28;;;;;;;27.80;14.13;;;;;;;7.51;95.54;102815.22;5061619;28;20484;-69
2023/12/15 02:41:54;;;;;;;27.23;14.63;;;;;;;7.50;95.81;102821.31;5054654;28;20471;-69
2023/12/15 02:44:19;;;;;;;27.08;14.43;;;;;;;7.53;96.07;102812.56;5059472;28;20377;-69
2023/12/15 02:46:44;;;;;;;29.95;15.30;;;;;;;7.54;95.87;102812.56;5059731;28;20121;-69
2023/12/15 02:49:10;;;;;;;30.42;15.30;;;;;;;7.53;95.93;102813.44;5064265;28;20024;-69
2023/12/15 02:51:35;;;;;;;31.80;14.95;;;;;;;7.53;96.38;102818.72;5059701;28;20033;-69
2023/12/15 02:54:01;;;;;;;30.25;14.32;;;;;;;7.54;96.28;102824.84;5061949;28;20043;-69
2023/12/15 02:56:27;;;;;;;32.70;14.18;;;;;;;7.52;96.40;102830.13;5058196;28;20480;-69
2023/12/15 02:58:53;;;;;;;31.48;14.85;;;;;;;7.53;96.08;102837.13;5050966;28;20027;-69
2023/12/15 03:01:19;;;;;;;30.23;15.02;;;;;;;7.56;96.10;102841.53;5054903;28;20504;-69
2023/12/15 03:03:44;;;;;;;30.42;14.93;;;;;;;7.59;96.05;102841.53;5064324;28;20028;-69
2023/12/15 03:06:09;;;;;;;32.53;16.15;;;;;;;7.59;96.39;102846.81;5059232;28;20036;-69
2023/12/15 03:08:35;;;;;;;33.70;16.63;;;;;;;7.60;96.11;102852.09;5054969;28;20024;-69
2023/12/15 03:11:00;;;;;;;32.38;15.88;;;;;;;7.60;95.82;102851.19;5059133;28;20086;-70
2023/12/15 03:13:26;;;;;;;34.25;15.95;;;;;;;7.60;96.12;102846.84;5056445;28;20075;-70
2023/12/15 03:15:52;;;;;;;32.85;15.15;;;;;;;7.61;96.26;102861.75;5058161;28;20032;-69
2023/12/15 03:18:17;;;;;;;32.42;15.98;;;;;;;7.61;96.22;102848.59;5059554;28;20110;-69
2023/12/15 03:20:44;;;;;;;36.45;16.83;;;;;;;7.60;96.18;102853.81;5064252;28;20024;-69
2023/12/15 03:23:09;;;;;;;34.10;16.27;;;;;;;7.61;96.61;102855.59;5061840;28;20396;-69
2023/12/15 03:25:35;;;;;;;36.67;16.40;;;;;;;7.61;96.34;102864.38;5060608;28;20029;-69
2023/12/15 03:28:00;;;;;;;34.65;16.27;;;;;;;7.65;96.40;102868.78;5063602;28;20072;-69
2023/12/15 03:30:26;;;;;;;36.92;16.73;;;;;;;7.64;96.39;102881.91;5062103;28;20029;-69
2023/12/15 03:32:51;;;;;;;35.30;16.50;;;;;;;7.65;96.43;102881.06;5057351;28;20464;-69
2023/12/15 03:35:17;;;;;;;33.60;16.55;;;;;;;7.68;96.21;102887.22;5060197;28;20231;-70
2023/12/15 03:37:43;;;;;;;37.25;16.85;;;;;;;7.68;96.50;102892.47;5055620;28;20160;-69
2023/12/15 03:40:09;;;;;;;37.35;17.23;;;;;;;7.68;96.36;102900.38;5053972;28;20055;-69
2023/12/15 03:42:34;;;;;;;35.47;16.77;;;;;;;7.70;96.33;102895.13;5065786;28;20048;-69
2023/12/15 03:44:59;;;;;;;39.35;17.92;;;;;;;7.71;96.34;102896.00;5059147;28;20048;-69
2023/12/15 03:47:34;;;;;;;43.83;18.67;;;;;;;7.74;96.37;102896.00;5063252;28;20044;-69
2023/12/15 03:49:59;;;;;;;39.53;17.23;;;;;;;7.72;96.28;102900.41;5059028;28;20021;-69
2023/12/15 03:52:24;;;;;;;38.03;16.25;;;;;;;7.71;96.78;102889.00;5060688;28;20070;-69
2023/12/15 03:54:50;;;;;;;43.28;18.70;;;;;;;7.69;97.05;102895.97;5065449;28;20037;-69
2023/12/15 03:57:15;;;;;;;37.78;15.93;;;;;;;7.73;96.80;102902.16;5060548;28;20086;-69
2023/12/15 03:59:40;;;;;;;41.65;18.48;;;;;;;7.74;96.74;102899.53;5064951;28;20028;-69
2023/12/15 04:02:11;;;;;;;42.90;18.42;;;;;;;7.75;96.66;102903.06;5058954;28;20031;-69
2023/12/15 04:04:38;;;;;;;43.10;17.57;;;;;;;7.72;96.87;102903.91;5060589;28;20573;-69
2023/12/15 04:07:03;;;;;;;42.45;18.70;;;;;;;7.75;96.81;102905.69;5060508;28;20298;-69
2023/12/15 04:09:28;;;;;;;43.17;17.00;;;;;;;7.77;97.19;102911.81;5057524;28;20020;-69
2023/12/15 04:11:54;;;;;;;41.08;18.92;;;;;;;7.77;96.90;102912.72;5058221;28;20033;-69
2023/12/15 04:14:19;;;;;;;42.75;19.35;;;;;;;7.79;97.00;102918.00;5063228;28;20290;-69
2023/12/15 04:16:45;;;;;;;43.17;16.80;;;;;;;7.80;96.57;102920.63;5066456;28;20495;-70
2023/12/15 04:19:10;;;;;;;46.33;18.90;;;;;;;7.81;96.88;102922.38;5059916;28;20424;-69
2023/12/15 04:21:35;;;;;;;44.90;19.25;;;;;;;7.78;97.16;102919.72;5063665;28;20068;-69
2023/12/15 04:24:01;;;;;;;50.53;20.30;;;;;;;7.79;97.33;102921.50;5060449;28;21209;-69
2023/12/15 04:26:26;;;;;;;43.15;19.05;;;;;;;7.83;97.27;102923.28;5059706;28;20078;-69
2023/12/15 04:28:53;;;;;;;45.10;19.02;;;;;;;7.85;96.92;102934.69;5055708;28;20032;-70
2023/12/15 04:31:18;;;;;;;43.95;19.67;;;;;;;7.86;97.27;102935.56;5061253;28;20028;-69
2023/12/15 04:33:44;;;;;;;52.35;20.15;;;;;;;7.86;97.15;102938.22;5063156;28;20328;-70
2023/12/15 04:36:10;;;;;;;48.10;20.10;;;;;;;7.87;97.03;102937.31;5060090;28;20032;-69
2023/12/15 04:38:36;;;;;;;47.20;19.88;;;;;;;7.87;96.85;102948.72;5059683;28;20490;-69
2023/12/15 04:41:01;;;;;;;52.15;20.88;;;;;;;7.89;96.94;102951.41;5059969;28;20024;-70
2023/12/15 04:43:27;;;;;;;53.30;21.17;;;;;;;7.90;96.69;102948.75;5058838;28;20741;-69
2023/12/15 04:45:52;;;;;;;54.75;20.42;;;;;;;7.90;96.92;102951.41;5061378;28;20040;-69
2023/12/15 04:48:17;;;;;;;51.63;21.10;;;;;;;7.91;97.08;102949.63;5055652;28;20028;-69
2023/12/15 04:50:43;;;;;;;54.08;21.23;;;;;;;7.89;97.55;102944.38;5056509;28;20029;-70
2023/12/15 04:53:08;;;;;;;59.42;21.25;;;;;;;7.91;97.33;102947.88;5066949;28;20031;-69
2023/12/15 04:55:33;;;;;;;57.47;21.90;;;;;;;7.88;97.71;102955.78;5056080;28;20620;-69
2023/12/15 04:58:00;;;;;;;51.33;21.50;;;;;;;7.92;97.23;102956.66;5065011;28;20051;-69
2023/12/15 05:00:25;;;;;;;54.05;20.98;;;;;;;7.93;97.26;102961.97;5062538;28;20036;-69
2023/12/15 05:02:51;;;;;;;55.47;21.42;;;;;;;7.96;97.44;102968.09;5063570;28;20396;-69
2023/12/15 05:05:16;;;;;;;56.88;23.35;;;;;;;7.97;97.32;102961.94;5054618;28;20059;-69
2023/12/15 05:07:42;;;;;;;55.85;22.20;;;;;;;7.97;97.58;102960.19;5064059;28;20020;-69
2023/12/15 05:10:08;;;;;;;54.30;20.85;;;;;;;7.97;97.49;102951.41;5057406;28;20028;-69
2023/12/15 05:12:34;;;;;;;55.70;22.98;;;;;;;7.96;97.54;102961.06;5064344;28;20091;-69
2023/12/15 05:15:01;;;;;;;54.10;21.10;;;;;;;7.95;97.59;102964.59;5049445;28;20385;-69
2023/12/15 05:17:26;;;;;;;55.92;22.33;;;;;;;7.95;97.66;102954.06;5054413;28;20021;-69
2023/12/15 05:19:51;;;;;;;60.80;22.50;;;;;;;7.95;97.50;102959.31;5060073;28;20055;-69
2023/12/15 05:22:17;;;;;;;60.63;22.77;;;;;;;7.98;97.80;102963.75;5060865;28;20441;-69
2023/12/15 05:24:43;;;;;;;61.17;21.70;;;;;;;8.00;97.60;102978.66;5059857;28;20448;-69
2023/12/15 05:27:08;;;;;;;59.95;22.85;;;;;;;8.01;97.70;102980.41;5061877;28;20388;-69
2023/12/15 05:29:34;;;;;;;62.08;22.35;;;;;;;8.01;97.66;102980.41;5055941;28;20135;-69
2023/12/15 05:31:59;;;;;;;56.25;22.33;;;;;;;8.03;97.48;102988.34;5062773;28;20037;-68
2023/12/15 05:34:25;;;;;;;59.75;23.40;;;;;;;8.04;97.61;102993.59;5054425;28;20055;-69
2023/12/15 05:36:51;;;;;;;59.03;22.25;;;;;;;8.03;97.28;102994.50;5064938;28;20028;-68
2023/12/15 05:39:16;;;;;;;63.80;24.40;;;;;;;8.04;97.56;102996.25;5063313;28;20400;-68
2023/12/15 05:41:42;;;;;;;64.35;23.55;;;;;;;8.05;97.44;103003.25;5056230;28;20033;-69
2023/12/15 05:44:08;;;;;;;65.13;23.83;;;;;;;8.11;97.17;103013.84;5063950;28;20031;-69
2023/12/15 05:46:35;;;;;;;62.20;22.73;;;;;;;8.12;97.22;103015.59;5055876;28;20033;-69
2023/12/15 05:49:01;;;;;;;60.28;23.38;;;;;;;8.13;97.41;103024.38;5069521;28;20048;-69
2023/12/15 05:51:26;;;;;;;62.85;24.85;;;;;;;8.15;97.38;103027.91;5061681;28;20538;-69
2023/12/15 05:53:51;;;;;;;61.30;23.88;;;;;;;8.15;97.47;103025.25;5060297;28;20485;-69
2023/12/15 05:56:17;;;;;;;66.60;23.85;;;;;;;8.15;97.13;103017.34;5064211;28;20025;-68
2023/12/15 05:58:42;;;;;;;65.90;24.17;;;;;;;8.15;97.57;103022.63;5059361;28;20387;-69
2023/12/15 06:01:08;;;;;;;64.18;23.52;;;;;;;8.14;97.39;103019.13;5062509;28;20131;-69
2023/12/15 06:03:33;;;;;;;59.75;23.92;;;;;;;8.15;97.33;103017.34;5059606;28;20095;-68
2023/12/15 06:05:59;;;;;;;64.38;22.55;;;;;;;8.18;97.48;103026.16;5055040;28;20135;-69
2023/12/15 06:08:24;;;;;;;63.67;24.02;;;;;;;8.20;97.70;103023.53;5055584;28;20514;-69
2023/12/15 06:10:49;;;;;;;57.03;22.75;;;;;;;8.22;97.36;103029.72;5052362;28;20028;-69
2023/12/15 06:13:15;;;;;;;68.30;25.50;;;;;;;8.21;97.54;103024.41;5065661;28;20071;-69
2023/12/15 06:15:40;;;;;;;57.97;23.27;;;;;;;8.23;97.24;103026.19;5062439;28;20484;-69
2023/12/15 06:18:06;;;;;;;59.90;23.27;;;;;;;8.26;97.52;103034.13;5056687;28;20450;-69
2023/12/15 06:20:31;;;;;;;65.57;24.38;;;;;;;8.25;97.11;103034.97;5057277;28;20056;-69
2023/12/15 06:22:57;;;;;;;69.53;25.02;;;;;;;8.26;97.39;103035.88;5052258;28;20047;-69
2023/12/15 06:25:22;;;;;;;70.90;26.05;;;;;;;8.22;97.25;103027.06;5054402;28;20029;-69
2023/12/15 06:27:48;;;;;;;71.30;27.05;;;;;;;8.26;97.44;103038.50;5059868;28;20020;-69
2023/12/15 06:30:14;;;;;;;69.30;24.95;;;;;;;8.26;97.53;103035.88;5052711;28;21482;-69
2023/12/15 06:32:42;;;;;;;69.05;27.65;;;;;;;8.25;97.81;103047.28;5060297;28;20021;-69
2023/12/15 06:35:08;;;;;;;65.97;26.67;;;;;;;8.26;97.44;103057.84;5056915;28;20117;-69
2023/12/15 06:37:33;;;;;;;66.90;25.05;;;;;;;8.27;97.70;103061.34;5060622;28;20078;-69
2023/12/15 06:39:58;;;;;;;72.65;26.63;;;;;;;8.25;97.58;103060.44;5064198;28;20454;-68
2023/12/15 06:42:24;;;;;;;75.18;27.58;;;;;;;8.26;98.03;103070.13;5059752;28;20395;-69
2023/12/15 06:44:49;;;;;;;71.00;26.45;;;;;;;8.26;97.71;103065.75;5062432;28;20056;-69
2023/12/15 06:47:14;;;;;;;63.65;26.70;;;;;;;8.29;97.13;103068.38;5061706;28;20029;-69
2023/12/15 06:49:40;;;;;;;69.03;26.77;;;;;;;8.29;97.83;103063.09;5058407;28;20115;-69
2023/12/15 06:52:05;;;;;;;69.60;26.33;;;;;;;8.29;98.05;103063.09;5053097;28;20052;-69
2023/12/15 06:54:31;;;;;;;65.10;25.42;;;;;;;8.30;97.61;103058.72;5060626;28;20053;-69
2023/12/15 06:56:56;;;;;;;63.50;27.05;;;;;;;8.29;98.09;103073.66;5056476;28;20546;-69
2023/12/15 06:59:21;;;;;;;65.50;26.40;;;;;;;8.27;98.75;103066.63;5057900;28;20034;-69
2023/12/15 07:01:47;;;;;;;68.80;25.98;;;;;;;8.30;98.35;103066.63;5057469;28;20027;-69
2023/12/15 07:04:12;;;;;;;67.75;27.10;;;;;;;8.30;98.25;103075.44;5055041;28;20036;-69
2023/12/15 07:06:37;;;;;;;63.50;25.83;;;;;;;8.31;98.11;103085.09;5052640;28;20043;-68
2023/12/15 07:09:03;;;;;;;62.20;26.40;;;;;;;8.33;97.98;103091.25;5053525;28;20037;-69
2023/12/15 07:11:28;;;;;;;68.75;25.80;;;;;;;8.33;97.96;103096.50;5059481;28;20067;-69
2023/12/15 07:13:54;;;;;;;67.38;25.13;;;;;;;8.35;97.73;103100.06;5052620;28;20499;-70
2023/12/15 07:16:19;;;;;;;66.18;26.40;;;;;;;8.36;97.83;103100.94;5057964;28;20032;-69
2023/12/15 07:18:45;;;;;;;74.85;25.95;;;;;;;8.35;97.97;103107.97;5054428;28;20083;-70
2023/12/15 07:21:11;;;;;;;75.88;28.00;;;;;;;8.38;97.79;103112.38;5058709;28;20079;-70
2023/12/15 07:23:37;;;;;;;70.43;27.48;;;;;;;8.36;nan;103114.09;5060707;28;20021;-70
2023/12/15 07:26:04;;;;;;;71.65;26.95;;;;;;;8.35;97.93;103107.09;5062321;28;20024;-69
2023/12/15 07:28:29;;;;;;;65.90;28.65;;;;;;;8.40;98.03;103106.25;5062709;28;20029;-69
2023/12/15 07:30:54;;;;;;;67.05;27.02;;;;;;;8.40;98.43;103121.19;5065150;28;20357;-69
2023/12/15 07:33:20;;;;;;;67.20;27.63;;;;;;;8.41;97.99;103120.31;5061724;28;20059;-70
2023/12/15 07:35:45;;;;;;;67.13;26.23;;;;;;;8.40;98.12;103121.19;5064310;28;20032;-70
2023/12/15 07:38:10;;;;;;;68.70;27.17;;;;;;;8.41;98.21;103115.06;5057085;28;20327;-70
2023/12/15 07:40:36;;;;;;;72.20;27.38;;;;;;;8.41;98.25;103125.59;5056571;28;20013;-69
2023/12/15 07:43:01;;;;;;;67.63;28.55;;;;;;;8.39;98.29;103145.78;5059037;28;20042;-69
2023/12/15 07:45:27;;;;;;;68.10;27.98;;;;;;;8.39;98.25;103136.13;5059487;28;20091;-69
2023/12/15 07:47:53;;;;;;;75.18;28.38;;;;;;;8.39;98.21;103141.41;5062009;28;20040;-69
2023/12/15 07:50:19;;;;;;;72.65;28.95;;;;;;;8.40;98.36;103129.09;5059296;28;20029;-69
2023/12/15 07:52:45;;;;;;;74.40;28.40;;;;;;;8.39;98.76;103122.03;5058634;28;20036;-69
2023/12/15 07:55:10;;;;;;;74.40;28.02;;;;;;;8.46;97.82;103131.78;5062021;28;20502;-69
2023/12/15 07:57:35;;;;;;;69.22;27.48;;;;;;;8.46;98.12;103138.78;5061792;28;20061;-69
2023/12/15 08:00:01;;;;;;;75.07;27.05;;;;;;;8.47;98.33;103149.34;5067304;28;20103;-69
2023/12/15 08:02:26;;;;;;;69.90;26.67;;;;;;;8.47;98.07;103146.69;5058849;28;20025;-68
2023/12/15 08:04:51;;;;;;;74.85;28.15;;;;;;;8.49;98.33;103157.28;5057099;28;20033;-69
2023/12/15 08:07:17;;;;;;;74.93;26.33;;;;;;;8.53;97.51;103159.91;5056351;28;20029;-69
2023/12/15 08:09:42;;;;;;;73.65;26.80;;;;;;;8.55;97.56;103159.94;5056229;28;20020;-69
2023/12/15 08:12:08;;;;;;;78.28;28.17;;;;;;;8.57;97.85;103169.59;5051483;28;20095;-69
2023/12/15 08:14:33;;;;;;;74.50;26.10;;;;;;;8.60;97.32;103174.03;5059137;28;20024;-69
2023/12/15 08:16:58;;;;;;;76.90;27.20;;;;;;;8.60;97.63;103177.53;5056502;28;20416;-69
2023/12/15 08:19:24;;;;;;;73.03;28.13;;;;;;;8.61;97.65;103181.94;5051280;28;20119;-69
2023/12/15 08:21:49;;;;;;;67.43;26.17;;;;;;;8.64;97.11;103189.00;5054617;28;20480;-70
2023/12/15 08:24:14;;;;;;;72.68;27.25;;;;;;;8.62;97.54;103188.09;5064513;28;20099;-69
2023/12/15 08:26:40;;;;;;;77.15;28.50;;;;;;;8.62;97.21;103198.63;5064055;28;20025;-69
2023/12/15 08:29:05;;;;;;;82.80;29.02;;;;;;;8.61;97.75;103199.50;5067106;28;20107;-69
2023/12/15 08:31:31;;;;;;;65.35;25.15;;;;;;;8.64;97.59;103200.41;5061474;28;20028;-69
2023/12/15 08:33:56;;;;;;;66.88;27.17;;;;;;;8.66;97.02;103208.31;5066638;28;20025;-69
2023/12/15 08:36:21;;;;;;;75.07;27.55;;;;;;;8.67;97.14;103207.44;5061317;28;20059;-69
2023/12/15 08:38:47;;;;;;;75.82;26.23;;;;;;;8.69;96.92;103222.41;5064718;28;20024;-69
2023/12/15 08:41:12;;;;;;;76.35;28.42;;;;;;;8.65;96.96;103222.41;5058073;28;20438;-69
2023/12/15 08:43:37;;;;;;;66.93;26.92;;;;;;;8.67;97.27;103223.28;5059811;28;20027;-69
2023/12/15 08:46:03;;;;;;;73.05;26.70;;;;;;;8.66;97.30;103240.84;5064801;28;20036;-69
2023/12/15 08:48:28;;;;;;;72.32;26.88;;;;;;;8.68;97.45;103244.41;5051093;28;20108;-70
2023/12/15 08:50:54;;;;;;;66.00;24.23;;;;;;;8.71;97.12;103242.63;5060277;28;20377;-69
2023/12/15 08:53:20;;;;;;;66.70;25.58;;;;;;;8.73;97.33;103254.09;5055797;28;20021;-69
2023/12/15 08:55:46;;;;;;;64.22;25.88;;;;;;;8.72;96.99;103252.31;5052803;28;20029;-69
2023/12/15 08:58:12;;;;;;;84.63;26.23;;;;;;;8.73;97.23;103252.34;5061413;28;20340;-69
2023/12/15 09:00:37;;;;;;;66.18;23.77;;;;;;;8.76;97.14;103256.72;5063547;28;20351;-69
2023/12/15 09:03:03;;;;;;;63.95;25.80;;;;;;;8.77;97.16;103259.41;5064989;28;20103;-69
2023/12/15 09:05:29;;;;;;;67.30;25.67;;;;;;;8.80;96.94;103258.53;5059462;28;20030;-69
2023/12/15 09:07:54;;;;;;;67.30;24.85;;;;;;;8.84;97.07;103265.59;5065192;28;20123;-69
2023/12/15 09:10:21;;;;;;;75.10;25.05;;;;;;;8.88;97.12;103267.38;5062325;28;20239;-69
2023/12/15 09:12:46;;;;;;;66.22;26.92;;;;;;;8.89;96.52;103258.56;5057782;28;20051;-69
2023/12/15 09:15:12;;;;;;;63.05;25.92;;;;;;;8.91;96.47;103272.69;5057588;28;20029;-69
2023/12/15 09:17:40;;;;;;;65.35;25.15;;;;;;;8.93;96.31;103269.16;5062482;28;20029;-69
2023/12/15 09:20:07;;;;;;;60.90;24.33;;;;;;;8.97;96.50;103266.53;5057852;28;20089;-69
2023/12/15 09:22:33;;;;;;;59.67;24.02;;;;;;;8.97;96.25;103271.81;5056431;28;20063;-69
2023/12/15 09:24:58;;;;;;;65.05;26.65;;;;;;;8.98;96.31;103281.50;5061111;28;20056;-69
2023/12/15 09:27:23;;;;;;;65.57;24.95;;;;;;;8.99;96.26;103286.78;5063421;28;20078;-69
2023/12/15 09:29:49;;;;;;;62.22;24.35;;;;;;;9.05;96.32;103294.75;5064340;28;20024;-69
2023/12/15 09:32:14;;;;;;;59.38;23.40;;;;;;;9.09;96.10;103291.25;5056819;28;20063;-69
2023/12/15 09:34:39;;;;;;;60.75;22.67;;;;;;;9.11;95.90;103297.41;5060403;28;20431;-69
2023/12/15 09:37:05;;;;;;;58.97;24.15;;;;;;;9.11;95.95;103299.16;5064728;28;20376;-69
2023/12/15 09:39:30;;;;;;;59.38;24.92;;;;;;;9.16;96.00;103303.59;5062421;28;20438;-70
2023/12/15 09:41:55;;;;;;;60.65;23.67;;;;;;;9.16;95.45;103318.53;5064418;28;20021;-70
2023/12/15 09:44:21;;;;;;;61.67;23.60;;;;;;;9.13;95.36;103324.66;5064848;28;20024;-70
2023/12/15 09:46:47;;;;;;;59.38;23.05;;;;;;;9.13;95.34;103331.72;5059012;28;20456;-69
2023/12/15 09:49:16;;;;;;;63.13;22.83;;;;;;;9.14;95.77;103334.38;5062249;28;20403;-70
2023/12/15 09:51:48;;;;;;;58.13;23.25;;;;;;;9.18;95.40;103344.06;5066578;28;20415;-70
2023/12/15 09:54:14;;;;;;;59.72;22.42;;;;;;;9.19;94.92;103351.13;5063676;28;20107;-69
2023/12/15 09:56:39;;;;;;;53.40;21.23;;;;;;;9.20;95.08;103363.44;5062395;28;20131;-69
2023/12/15 09:59:05;;;;;;;52.33;22.15;;;;;;;9.15;94.74;103370.44;5057344;28;20078;-70
2023/12/15 10:01:31;;;;;;;57.60;22.70;;;;;;;9.14;94.84;103366.06;5062903;28;20083;-69
2023/12/15 10:03:57;;;;;;;53.53;22.27;;;;;;;9.15;94.61;103357.25;5060936;28;20025;-69
2023/12/15 10:06:23;;;;;;;50.33;21.48;;;;;;;9.18;94.59;103359.00;5062255;28;20119;-70
2023/12/15 10:08:49;;;;;;;53.83;21.00;;;;;;;9.19;94.72;103364.31;5059560;28;20021;-70
2023/12/15 10:11:16;;;;;;;52.63;22.65;;;;;;;9.22;94.35;103374.00;5065074;28;20090;-70
2023/12/15 10:13:42;;;;;;;58.22;22.35;;;;;;;9.26;94.60;103374.91;5061671;28;20096;-70
2023/12/15 10:16:11;;;;;;;53.72;21.00;;;;;;;9.25;94.62;103379.31;5063449;28;20118;-69
2023/12/15 10:18:40;;;;;;;46.67;18.73;;;;;;;9.20;93.81;103383.69;5056152;28;20033;-70
2023/12/15 10:21:05;;;;;;;49.75;18.38;;;;;;;9.20;93.63;103381.03;5061509;28;20029;-70
2023/12/15 10:23:32;;;;;;;48.80;19.15;;;;;;;9.23;93.73;103385.44;5057603;28;20491;-70
2023/12/15 10:26:06;;;;;;;47.17;19.35;;;;;;;9.25;94.09;103394.25;5055923;28;20033;-68
2023/12/15 10:28:38;;;;;;;49.90;20.50;;;;;;;9.29;93.74;103403.97;5048226;28;20556;-67
2023/12/15 10:31:05;;;;;;;43.10;19.02;;;;;;;9.30;93.76;103395.16;5053399;28;20113;-70
2023/12/15 10:33:32;;;;;;;50.25;19.98;;;;;;;9.31;93.24;103394.28;5054259;28;20421;-69
2023/12/15 10:36:00;;;;;;;46.00;20.13;;;;;;;9.32;93.30;103403.97;5058466;28;20502;-70
2023/12/15 10:38:29;;;;;;;45.58;18.83;;;;;;;9.37;93.24;103415.44;5062038;28;21695;-70
2023/12/15 10:40:56;;;;;;;43.28;18.63;;;;;;;9.35;92.56;103418.06;5058061;28;20566;-70
2023/12/15 10:43:22;;;;;;;42.15;18.10;;;;;;;9.40;93.66;103416.34;5056795;28;20070;-69
2023/12/15 10:45:48;;;;;;;40.15;18.88;;;;;;;9.40;92.92;103420.75;5057799;28;20117;-70
2023/12/15 10:48:14;;;;;;;49.22;19.60;;;;;;;9.41;92.65;103425.16;5059714;28;20480;-70
2023/12/15 10:50:43;;;;;;;44.63;18.95;;;;;;;9.40;92.79;103431.31;5061175;28;20130;-70
2023/12/15 10:53:09;;;;;;;45.67;19.23;;;;;;;9.40;92.54;103434.81;5061517;28;20032;-70
2023/12/15 10:55:37;;;;;;;42.17;18.08;;;;;;;9.40;92.35;103437.47;5059516;28;20083;-69
2023/12/15 10:58:06;;;;;;;38.97;17.98;;;;;;;9.43;92.43;103445.41;5063358;28;20461;-69
2023/12/15 11:00:32;;;;;;;43.55;18.33;;;;;;;9.42;92.12;103445.41;5059455;28;20433;-69
2023/12/15 11:02:59;;;;;;;46.67;18.55;;;;;;;9.45;92.21;103440.13;5062801;28;20083;-70
2023/12/15 11:05:26;;;;;;;41.78;17.17;;;;;;;9.45;92.12;103448.94;5065157;28;20476;-69
2023/12/15 11:07:52;;;;;;;40.80;16.95;;;;;;;9.44;92.43;103462.16;5062005;28;20021;-69
2023/12/15 11:10:18;;;;;;;42.22;16.80;;;;;;;9.46;91.37;103465.66;5062274;28;20082;-69